sensor_id;sensor_type;location;lat;lon;timestamp;P1;durP1;ratioP1;P2;durP2;ratioP2
2888;SDS011;1453;42.708;23.282;2022-11-14T00:00:39;127.38;;;62.60;;
2888;SDS011;1453;42.708;23.282;2022-11-14T00:03:07;136.27;;;66.97;;
2888;SDS011;1453;42.708;23.282;2022-11-14T00:05:37;132.55;;;64.72;;
2888;SDS011;1453;42.708;23.282;2022-11-14T00:08:05;135.25;;;68.07;;
2888;SDS011;1453;42.708;23.282;2022-11-14T00:10:31;136.40;;;66.63;;
2888;SDS011;1453;42.708;23.282;2022-11-14T00:12:57;135.30;;;67.10;;
2888;SDS011;1453;42.708;23.282;2022-11-14T00:15:23;128.97;;;65.97;;
2888;SDS011;1453;42.708;23.282;2022-11-14T00:17:48;134.67;;;69.40;;
2888;SDS011;1453;42.708;23.282;2022-11-14T00:20:14;137.63;;;70.83;;
2888;SDS011;1453;42.708;23.282;2022-11-14T00:22:40;148.27;;;69.43;;
2888;SDS011;1453;42.708;23.282;2022-11-14T00:25:06;133.17;;;68.40;;
2888;SDS011;1453;42.708;23.282;2022-11-14T00:27:32;140.82;;;68.07;;
2888;SDS011;1453;42.708;23.282;2022-11-14T00:29:58;148.80;;;70.50;;
2888;SDS011;1453;42.708;23.282;2022-11-14T00:32:24;133.13;;;65.63;;
2888;SDS011;1453;42.708;23.282;2022-11-14T00:34:49;125.00;;;61.43;;
2888;SDS011;1453;42.708;23.282;2022-11-14T00:37:15;125.60;;;61.03;;
2888;SDS011;1453;42.708;23.282;2022-11-14T00:39:41;113.10;;;57.60;;
2888;SDS011;1453;42.708;23.282;2022-11-14T00:42:07;127.20;;;59.00;;
2888;SDS011;1453;42.708;23.282;2022-11-14T00:44:32;107.43;;;55.83;;
2888;SDS011;1453;42.708;23.282;2022-11-14T00:46:58;118.10;;;56.20;;
2888;SDS011;1453;42.708;23.282;2022-11-14T00:49:24;116.37;;;56.57;;
2888;SDS011;1453;42.708;23.282;2022-11-14T00:51:50;123.60;;;58.87;;
2888;SDS011;1453;42.708;23.282;2022-11-14T00:54:15;122.10;;;60.03;;
2888;SDS011;1453;42.708;23.282;2022-11-14T00:56:41;119.97;;;58.73;;
2888;SDS011;1453;42.708;23.282;2022-11-14T00:59:07;113.40;;;56.37;;
2888;SDS011;1453;42.708;23.282;2022-11-14T01:01:32;118.73;;;55.30;;
2888;SDS011;1453;42.708;23.282;2022-11-14T01:03:58;108.67;;;52.20;;
2888;SDS011;1453;42.708;23.282;2022-11-14T01:06:24;103.20;;;53.47;;
2888;SDS011;1453;42.708;23.282;2022-11-14T01:08:50;117.57;;;56.83;;
2888;SDS011;1453;42.708;23.282;2022-11-14T01:11:17;115.85;;;53.22;;
2888;SDS011;1453;42.708;23.282;2022-11-14T01:13:46;112.32;;;54.15;;
2888;SDS011;1453;42.708;23.282;2022-11-14T01:16:12;111.72;;;52.00;;
2888;SDS011;1453;42.708;23.282;2022-11-14T01:18:38;110.90;;;53.40;;
2888;SDS011;1453;42.708;23.282;2022-11-14T01:21:09;100.18;;;50.47;;
2888;SDS011;1453;42.708;23.282;2022-11-14T01:23:36;101.57;;;49.83;;
2888;SDS011;1453;42.708;23.282;2022-11-14T01:26:04;114.70;;;53.17;;
2888;SDS011;1453;42.708;23.282;2022-11-14T01:28:34;105.00;;;51.47;;
2888;SDS011;1453;42.708;23.282;2022-11-14T01:31:34;109.97;;;51.90;;
2888;SDS011;1453;42.708;23.282;2022-11-14T01:33:52;103.03;;;50.10;;
2888;SDS011;1453;42.708;23.282;2022-11-14T01:36:19;103.55;;;50.97;;
2888;SDS011;1453;42.708;23.282;2022-11-14T01:38:45;112.55;;;53.13;;
2888;SDS011;1453;42.708;23.282;2022-11-14T01:41:16;106.53;;;54.40;;
2888;SDS011;1453;42.708;23.282;2022-11-14T01:43:42;106.53;;;52.00;;
2888;SDS011;1453;42.708;23.282;2022-11-14T01:46:12;98.50;;;49.53;;
2888;SDS011;1453;42.708;23.282;2022-11-14T01:48:54;130.98;;;58.83;;
2888;SDS011;1453;42.708;23.282;2022-11-14T01:51:28;120.72;;;57.03;;
2888;SDS011;1453;42.708;23.282;2022-11-14T01:53:59;112.75;;;55.80;;
2888;SDS011;1453;42.708;23.282;2022-11-14T01:56:44;98.50;;;50.72;;
2888;SDS011;1453;42.708;23.282;2022-11-14T01:59:17;90.32;;;40.90;;
2888;SDS011;1453;42.708;23.282;2022-11-14T02:01:48;94.60;;;45.90;;
2888;SDS011;1453;42.708;23.282;2022-11-14T02:04:17;88.20;;;43.47;;
2888;SDS011;1453;42.708;23.282;2022-11-14T02:06:50;91.72;;;45.35;;
2888;SDS011;1453;42.708;23.282;2022-11-14T02:09:21;96.97;;;46.45;;
2888;SDS011;1453;42.708;23.282;2022-11-14T02:11:47;101.13;;;47.10;;
2888;SDS011;1453;42.708;23.282;2022-11-14T02:14:14;111.50;;;50.25;;
2888;SDS011;1453;42.708;23.282;2022-11-14T02:16:40;90.97;;;46.03;;
2888;SDS011;1453;42.708;23.282;2022-11-14T02:19:07;94.07;;;45.42;;
2888;SDS011;1453;42.708;23.282;2022-11-14T02:21:33;107.15;;;49.13;;
2888;SDS011;1453;42.708;23.282;2022-11-14T02:23:59;100.82;;;46.28;;
2888;SDS011;1453;42.708;23.282;2022-11-14T02:26:25;106.70;;;48.33;;
2888;SDS011;1453;42.708;23.282;2022-11-14T02:28:51;95.50;;;44.90;;
2888;SDS011;1453;42.708;23.282;2022-11-14T02:31:17;84.27;;;42.60;;
2888;SDS011;1453;42.708;23.282;2022-11-14T02:33:43;103.70;;;42.97;;
2888;SDS011;1453;42.708;23.282;2022-11-14T02:36:09;81.63;;;42.50;;
2888;SDS011;1453;42.708;23.282;2022-11-14T02:38:34;95.57;;;44.00;;
2888;SDS011;1453;42.708;23.282;2022-11-14T02:41:01;89.60;;;43.50;;
2888;SDS011;1453;42.708;23.282;2022-11-14T02:43:27;87.20;;;43.25;;
2888;SDS011;1453;42.708;23.282;2022-11-14T02:45:53;79.45;;;42.25;;
2888;SDS011;1453;42.708;23.282;2022-11-14T02:48:19;99.10;;;44.77;;
2888;SDS011;1453;42.708;23.282;2022-11-14T02:50:47;88.40;;;41.13;;
2888;SDS011;1453;42.708;23.282;2022-11-14T02:53:13;92.40;;;39.85;;
2888;SDS011;1453;42.708;23.282;2022-11-14T02:55:39;91.50;;;43.03;;
2888;SDS011;1453;42.708;23.282;2022-11-14T02:58:05;84.57;;;37.07;;
2888;SDS011;1453;42.708;23.282;2022-11-14T03:00:31;93.88;;;38.92;;
2888;SDS011;1453;42.708;23.282;2022-11-14T03:02:57;109.28;;;39.92;;
2888;SDS011;1453;42.708;23.282;2022-11-14T03:05:23;89.77;;;37.90;;
2888;SDS011;1453;42.708;23.282;2022-11-14T03:07:53;88.82;;;36.92;;
2888;SDS011;1453;42.708;23.282;2022-11-14T03:10:20;116.88;;;38.25;;
2888;SDS011;1453;42.708;23.282;2022-11-14T03:12:47;143.70;;;40.00;;
2888;SDS011;1453;42.708;23.282;2022-11-14T03:15:17;103.80;;;34.45;;
2888;SDS011;1453;42.708;23.282;2022-11-14T03:17:43;436.27;;;57.97;;
2888;SDS011;1453;42.708;23.282;2022-11-14T03:20:09;173.77;;;41.17;;
2888;SDS011;1453;42.708;23.282;2022-11-14T03:22:35;143.03;;;39.73;;
2888;SDS011;1453;42.708;23.282;2022-11-14T03:25:00;156.33;;;41.83;;
2888;SDS011;1453;42.708;23.282;2022-11-14T03:27:26;121.17;;;39.57;;
2888;SDS011;1453;42.708;23.282;2022-11-14T03:29:52;89.10;;;37.00;;
2888;SDS011;1453;42.708;23.282;2022-11-14T03:32:18;82.30;;;36.20;;
2888;SDS011;1453;42.708;23.282;2022-11-14T03:34:43;92.77;;;38.77;;
2888;SDS011;1453;42.708;23.282;2022-11-14T03:37:09;84.40;;;36.30;;
2888;SDS011;1453;42.708;23.282;2022-11-14T03:39:35;82.17;;;36.10;;
2888;SDS011;1453;42.708;23.282;2022-11-14T03:42:01;84.70;;;37.40;;
2888;SDS011;1453;42.708;23.282;2022-11-14T03:44:27;74.70;;;36.47;;
2888;SDS011;1453;42.708;23.282;2022-11-14T03:46:53;90.13;;;36.70;;
2888;SDS011;1453;42.708;23.282;2022-11-14T03:49:19;84.20;;;36.00;;
2888;SDS011;1453;42.708;23.282;2022-11-14T03:51:44;102.33;;;36.60;;
2888;SDS011;1453;42.708;23.282;2022-11-14T03:54:10;86.67;;;37.03;;
2888;SDS011;1453;42.708;23.282;2022-11-14T03:56:36;97.13;;;37.90;;
2888;SDS011;1453;42.708;23.282;2022-11-14T03:59:02;79.30;;;35.50;;
2888;SDS011;1453;42.708;23.282;2022-11-14T04:01:28;91.10;;;38.43;;
2888;SDS011;1453;42.708;23.282;2022-11-14T04:03:54;90.63;;;39.37;;
2888;SDS011;1453;42.708;23.282;2022-11-14T04:06:19;102.80;;;39.17;;
2888;SDS011;1453;42.708;23.282;2022-11-14T04:08:45;96.67;;;41.10;;
2888;SDS011;1453;42.708;23.282;2022-11-14T04:11:11;97.97;;;40.03;;
2888;SDS011;1453;42.708;23.282;2022-11-14T04:13:37;98.83;;;40.10;;
2888;SDS011;1453;42.708;23.282;2022-11-14T04:16:03;101.00;;;40.70;;
2888;SDS011;1453;42.708;23.282;2022-11-14T04:18:29;96.10;;;41.65;;
2888;SDS011;1453;42.708;23.282;2022-11-14T04:20:55;102.60;;;41.20;;
2888;SDS011;1453;42.708;23.282;2022-11-14T04:23:20;100.00;;;40.20;;
2888;SDS011;1453;42.708;23.282;2022-11-14T04:25:46;99.63;;;42.20;;
2888;SDS011;1453;42.708;23.282;2022-11-14T04:28:12;108.67;;;40.00;;
2888;SDS011;1453;42.708;23.282;2022-11-14T04:30:38;112.87;;;41.07;;
2888;SDS011;1453;42.708;23.282;2022-11-14T04:33:04;106.78;;;41.65;;
2888;SDS011;1453;42.708;23.282;2022-11-14T04:35:30;129.45;;;54.65;;
2888;SDS011;1453;42.708;23.282;2022-11-14T04:37:56;116.57;;;46.10;;
2888;SDS011;1453;42.708;23.282;2022-11-14T04:40:22;121.17;;;49.30;;
2888;SDS011;1453;42.708;23.282;2022-11-14T04:42:47;111.73;;;42.60;;
2888;SDS011;1453;42.708;23.282;2022-11-14T04:45:13;113.63;;;46.00;;
2888;SDS011;1453;42.708;23.282;2022-11-14T04:47:42;106.50;;;41.33;;
2888;SDS011;1453;42.708;23.282;2022-11-14T04:50:08;97.97;;;39.13;;
2888;SDS011;1453;42.708;23.282;2022-11-14T04:52:34;99.10;;;40.83;;
2888;SDS011;1453;42.708;23.282;2022-11-14T04:55:00;111.33;;;40.80;;
2888;SDS011;1453;42.708;23.282;2022-11-14T04:57:27;104.35;;;42.10;;
2888;SDS011;1453;42.708;23.282;2022-11-14T04:59:52;104.83;;;41.57;;
2888;SDS011;1453;42.708;23.282;2022-11-14T05:02:18;133.97;;;44.93;;
2888;SDS011;1453;42.708;23.282;2022-11-14T05:04:44;120.30;;;43.97;;
2888;SDS011;1453;42.708;23.282;2022-11-14T05:07:11;195.45;;;51.08;;
2888;SDS011;1453;42.708;23.282;2022-11-14T05:09:38;377.33;;;65.72;;
2888;SDS011;1453;42.708;23.282;2022-11-14T05:12:04;303.90;;;57.60;;
2888;SDS011;1453;42.708;23.282;2022-11-14T05:14:30;419.63;;;62.92;;
2888;SDS011;1453;42.708;23.282;2022-11-14T05:16:56;394.70;;;64.40;;
2888;SDS011;1453;42.708;23.282;2022-11-14T05:19:22;406.67;;;68.50;;
2888;SDS011;1453;42.708;23.282;2022-11-14T05:21:48;218.07;;;46.57;;
2888;SDS011;1453;42.708;23.282;2022-11-14T05:24:14;536.77;;;68.17;;
2888;SDS011;1453;42.708;23.282;2022-11-14T05:26:40;262.40;;;54.77;;
2888;SDS011;1453;42.708;23.282;2022-11-14T05:29:06;296.23;;;49.37;;
2888;SDS011;1453;42.708;23.282;2022-11-14T05:31:32;417.47;;;67.17;;
2888;SDS011;1453;42.708;23.282;2022-11-14T05:33:57;524.00;;;72.73;;
2888;SDS011;1453;42.708;23.282;2022-11-14T05:36:23;380.73;;;56.80;;
2888;SDS011;1453;42.708;23.282;2022-11-14T05:38:49;441.77;;;70.17;;
2888;SDS011;1453;42.708;23.282;2022-11-14T05:41:16;179.77;;;43.67;;
2888;SDS011;1453;42.708;23.282;2022-11-14T05:43:45;701.53;;;92.22;;
2888;SDS011;1453;42.708;23.282;2022-11-14T05:46:12;133.10;;;40.50;;
2888;SDS011;1453;42.708;23.282;2022-11-14T05:48:40;97.75;;;36.53;;
2888;SDS011;1453;42.708;23.282;2022-11-14T05:51:06;201.20;;;41.03;;
2888;SDS011;1453;42.708;23.282;2022-11-14T05:53:35;157.65;;;40.88;;
2888;SDS011;1453;42.708;23.282;2022-11-14T05:56:02;175.88;;;40.00;;
2888;SDS011;1453;42.708;23.282;2022-11-14T05:58:32;204.35;;;41.97;;
2888;SDS011;1453;42.708;23.282;2022-11-14T06:01:03;119.60;;;36.97;;
2888;SDS011;1453;42.708;23.282;2022-11-14T06:03:39;137.20;;;35.38;;
2888;SDS011;1453;42.708;23.282;2022-11-14T06:06:07;421.98;;;58.15;;
2888;SDS011;1453;42.708;23.282;2022-11-14T06:08:36;174.95;;;40.92;;
2888;SDS011;1453;42.708;23.282;2022-11-14T06:11:03;466.90;;;70.28;;
2888;SDS011;1453;42.708;23.282;2022-11-14T06:13:39;96.15;;;34.75;;
2888;SDS011;1453;42.708;23.282;2022-11-14T06:16:07;363.30;;;54.47;;
2888;SDS011;1453;42.708;23.282;2022-11-14T06:18:36;397.02;;;51.95;;
2888;SDS011;1453;42.708;23.282;2022-11-14T06:21:04;236.60;;;48.70;;
2888;SDS011;1453;42.708;23.282;2022-11-14T06:23:39;127.28;;;38.42;;
2888;SDS011;1453;42.708;23.282;2022-11-14T06:26:05;176.50;;;41.93;;
2888;SDS011;1453;42.708;23.282;2022-11-14T06:28:48;177.63;;;41.85;;
2888;SDS011;1453;42.708;23.282;2022-11-14T06:31:16;571.45;;;79.07;;
2888;SDS011;1453;42.708;23.282;2022-11-14T06:33:42;262.60;;;45.30;;
2888;SDS011;1453;42.708;23.282;2022-11-14T06:36:09;103.70;;;36.95;;
2888;SDS011;1453;42.708;23.282;2022-11-14T06:38:36;243.70;;;49.25;;
2888;SDS011;1453;42.708;23.282;2022-11-14T06:41:07;188.43;;;45.25;;
2888;SDS011;1453;42.708;23.282;2022-11-14T06:43:37;135.88;;;41.92;;
2888;SDS011;1453;42.708;23.282;2022-11-14T06:46:05;137.20;;;41.08;;
2888;SDS011;1453;42.708;23.282;2022-11-14T06:48:33;126.80;;;40.80;;
2888;SDS011;1453;42.708;23.282;2022-11-14T06:51:00;203.57;;;51.20;;
2888;SDS011;1453;42.708;23.282;2022-11-14T06:53:28;266.63;;;54.38;;
2888;SDS011;1453;42.708;23.282;2022-11-14T06:56:00;355.05;;;65.18;;
2888;SDS011;1453;42.708;23.282;2022-11-14T06:58:32;198.93;;;48.40;;
2888;SDS011;1453;42.708;23.282;2022-11-14T07:03:58;238.95;;;50.47;;
2888;SDS011;1453;42.708;23.282;2022-11-14T07:06:26;135.80;;;43.47;;
2888;SDS011;1453;42.708;23.282;2022-11-14T07:08:54;142.68;;;43.65;;
2888;SDS011;1453;42.708;23.282;2022-11-14T07:11:22;295.38;;;58.63;;
2888;SDS011;1453;42.708;23.282;2022-11-14T07:13:56;684.10;;;98.43;;
2888;SDS011;1453;42.708;23.282;2022-11-14T07:16:28;337.60;;;63.85;;
2888;SDS011;1453;42.708;23.282;2022-11-14T07:18:59;222.68;;;55.28;;
2888;SDS011;1453;42.708;23.282;2022-11-14T07:21:27;396.80;;;70.38;;
2888;SDS011;1453;42.708;23.282;2022-11-14T07:23:55;286.52;;;58.63;;
2888;SDS011;1453;42.708;23.282;2022-11-14T07:26:21;155.68;;;51.97;;
2888;SDS011;1453;42.708;23.282;2022-11-14T07:28:48;637.00;;;101.68;;
2888;SDS011;1453;42.708;23.282;2022-11-14T07:31:14;273.58;;;60.45;;
2888;SDS011;1453;42.708;23.282;2022-11-14T07:33:43;239.38;;;56.75;;
2888;SDS011;1453;42.708;23.282;2022-11-14T07:36:10;174.88;;;51.92;;
2888;SDS011;1453;42.708;23.282;2022-11-14T07:38:37;153.43;;;48.85;;
2888;SDS011;1453;42.708;23.282;2022-11-14T07:41:10;254.05;;;56.10;;
2888;SDS011;1453;42.708;23.282;2022-11-14T07:43:38;130.43;;;48.25;;
2888;SDS011;1453;42.708;23.282;2022-11-14T07:46:12;168.00;;;49.45;;
2888;SDS011;1453;42.708;23.282;2022-11-14T07:48:42;146.95;;;50.63;;
2888;SDS011;1453;42.708;23.282;2022-11-14T07:51:11;272.25;;;61.42;;
2888;SDS011;1453;42.708;23.282;2022-11-14T07:53:41;155.43;;;54.45;;
2888;SDS011;1453;42.708;23.282;2022-11-14T07:56:07;223.50;;;55.23;;
2888;SDS011;1453;42.708;23.282;2022-11-14T07:58:34;144.13;;;48.72;;
2888;SDS011;1453;42.708;23.282;2022-11-14T08:01:01;161.38;;;51.15;;
2888;SDS011;1453;42.708;23.282;2022-11-14T08:03:28;196.75;;;52.97;;
2888;SDS011;1453;42.708;23.282;2022-11-14T08:06:04;135.10;;;48.00;;
2888;SDS011;1453;42.708;23.282;2022-11-14T08:08:35;175.93;;;53.10;;
2888;SDS011;1453;42.708;23.282;2022-11-14T08:11:02;168.50;;;50.58;;
2888;SDS011;1453;42.708;23.282;2022-11-14T08:13:28;215.50;;;54.30;;
2888;SDS011;1453;42.708;23.282;2022-11-14T08:15:56;169.18;;;52.90;;
2888;SDS011;1453;42.708;23.282;2022-11-14T08:18:23;356.30;;;67.82;;
2888;SDS011;1453;42.708;23.282;2022-11-14T08:20:49;125.22;;;48.03;;
2888;SDS011;1453;42.708;23.282;2022-11-14T08:23:15;149.90;;;49.93;;
2888;SDS011;1453;42.708;23.282;2022-11-14T08:25:41;121.80;;;47.37;;
2888;SDS011;1453;42.708;23.282;2022-11-14T08:28:07;136.90;;;51.70;;
2888;SDS011;1453;42.708;23.282;2022-11-14T08:30:33;123.05;;;47.90;;
2888;SDS011;1453;42.708;23.282;2022-11-14T08:33:00;138.45;;;49.85;;
2888;SDS011;1453;42.708;23.282;2022-11-14T08:35:28;138.57;;;49.67;;
2888;SDS011;1453;42.708;23.282;2022-11-14T08:37:54;136.57;;;50.77;;
2888;SDS011;1453;42.708;23.282;2022-11-14T08:40:19;133.00;;;48.17;;
2888;SDS011;1453;42.708;23.282;2022-11-14T08:42:45;218.10;;;54.80;;
2888;SDS011;1453;42.708;23.282;2022-11-14T08:45:11;202.17;;;53.83;;
2888;SDS011;1453;42.708;23.282;2022-11-14T08:47:37;135.13;;;49.20;;
2888;SDS011;1453;42.708;23.282;2022-11-14T08:50:03;123.23;;;49.20;;
2888;SDS011;1453;42.708;23.282;2022-11-14T08:52:29;125.28;;;50.88;;
2888;SDS011;1453;42.708;23.282;2022-11-14T08:54:55;127.07;;;49.77;;
2888;SDS011;1453;42.708;23.282;2022-11-14T08:57:20;118.67;;;51.47;;
2888;SDS011;1453;42.708;23.282;2022-11-14T08:59:46;121.73;;;50.90;;
2888;SDS011;1453;42.708;23.282;2022-11-14T09:02:12;111.93;;;48.37;;
2888;SDS011;1453;42.708;23.282;2022-11-14T09:04:38;113.47;;;50.50;;
2888;SDS011;1453;42.708;23.282;2022-11-14T09:07:04;126.13;;;52.20;;
2888;SDS011;1453;42.708;23.282;2022-11-14T09:09:31;112.47;;;49.60;;
2888;SDS011;1453;42.708;23.282;2022-11-14T09:11:57;124.10;;;49.88;;
2888;SDS011;1453;42.708;23.282;2022-11-14T09:14:22;111.17;;;49.07;;
2888;SDS011;1453;42.708;23.282;2022-11-14T09:16:48;101.63;;;48.93;;
2888;SDS011;1453;42.708;23.282;2022-11-14T09:19:14;99.13;;;46.93;;
2888;SDS011;1453;42.708;23.282;2022-11-14T09:21:40;95.70;;;46.23;;
2888;SDS011;1453;42.708;23.282;2022-11-14T09:24:06;96.90;;;46.00;;
2888;SDS011;1453;42.708;23.282;2022-11-14T09:26:32;97.30;;;46.80;;
2888;SDS011;1453;42.708;23.282;2022-11-14T09:28:58;86.85;;;45.15;;
2888;SDS011;1453;42.708;23.282;2022-11-14T09:31:26;105.95;;;50.60;;
2888;SDS011;1453;42.708;23.282;2022-11-14T09:33:52;98.68;;;45.40;;
2888;SDS011;1453;42.708;23.282;2022-11-14T09:36:18;99.53;;;48.10;;
2888;SDS011;1453;42.708;23.282;2022-11-14T09:38:44;100.60;;;49.93;;
2888;SDS011;1453;42.708;23.282;2022-11-14T09:41:23;106.88;;;50.90;;
2888;SDS011;1453;42.708;23.282;2022-11-14T09:46:39;111.63;;;53.45;;
2888;SDS011;1453;42.708;23.282;2022-11-14T09:49:22;107.50;;;52.22;;
2888;SDS011;1453;42.708;23.282;2022-11-14T09:55:12;100.40;;;51.33;;
2888;SDS011;1453;42.708;23.282;2022-11-14T09:57:41;92.93;;;51.07;;
2888;SDS011;1453;42.708;23.282;2022-11-14T10:02:45;88.43;;;52.00;;
2888;SDS011;1453;42.708;23.282;2022-11-14T10:11:21;90.10;;;53.90;;
2888;SDS011;1453;42.708;23.282;2022-11-14T10:16:56;86.60;;;51.23;;
2888;SDS011;1453;42.708;23.282;2022-11-14T10:20:02;82.97;;;50.97;;
2888;SDS011;1453;42.708;23.282;2022-11-14T10:25:26;71.87;;;47.23;;
2888;SDS011;1453;42.708;23.282;2022-11-14T10:28:19;73.93;;;48.60;;
2888;SDS011;1453;42.708;23.282;2022-11-14T10:31:21;72.03;;;48.50;;
2888;SDS011;1453;42.708;23.282;2022-11-14T10:34:02;74.77;;;45.50;;
2888;SDS011;1453;42.708;23.282;2022-11-14T10:40:12;76.63;;;49.93;;
2888;SDS011;1453;42.708;23.282;2022-11-14T10:42:42;66.50;;;47.67;;
2888;SDS011;1453;42.708;23.282;2022-11-14T10:48:11;74.37;;;46.83;;
2888;SDS011;1453;42.708;23.282;2022-11-14T10:50:45;75.60;;;50.00;;
2888;SDS011;1453;42.708;23.282;2022-11-14T10:53:24;73.97;;;50.37;;
2888;SDS011;1453;42.708;23.282;2022-11-14T10:55:57;73.80;;;49.13;;
2888;SDS011;1453;42.708;23.282;2022-11-14T10:58:24;70.90;;;49.40;;
2888;SDS011;1453;42.708;23.282;2022-11-14T11:00:49;79.33;;;52.43;;
2888;SDS011;1453;42.708;23.282;2022-11-14T11:03:15;87.67;;;55.30;;
2888;SDS011;1453;42.708;23.282;2022-11-14T11:05:47;80.67;;;54.80;;
2888;SDS011;1453;42.708;23.282;2022-11-14T11:08:22;93.77;;;57.10;;
2888;SDS011;1453;42.708;23.282;2022-11-14T11:11:12;86.80;;;55.63;;
2888;SDS011;1453;42.708;23.282;2022-11-14T11:13:54;90.23;;;58.70;;
2888;SDS011;1453;42.708;23.282;2022-11-14T11:16:25;89.20;;;59.50;;
2888;SDS011;1453;42.708;23.282;2022-11-14T11:18:52;91.90;;;57.23;;
2888;SDS011;1453;42.708;23.282;2022-11-14T11:21:19;80.43;;;55.23;;
2888;SDS011;1453;42.708;23.282;2022-11-14T11:29:02;86.20;;;56.23;;
2888;SDS011;1453;42.708;23.282;2022-11-14T11:34:27;85.10;;;58.03;;
2888;SDS011;1453;42.708;23.282;2022-11-14T11:37:14;78.33;;;55.80;;
2888;SDS011;1453;42.708;23.282;2022-11-14T11:40:04;79.17;;;54.93;;
2888;SDS011;1453;42.708;23.282;2022-11-14T11:45:19;82.33;;;56.87;;
2888;SDS011;1453;42.708;23.282;2022-11-14T11:47:49;81.67;;;55.67;;
2888;SDS011;1453;42.708;23.282;2022-11-14T11:50:25;83.93;;;58.30;;
2888;SDS011;1453;42.708;23.282;2022-11-14T11:52:58;80.37;;;55.90;;
2888;SDS011;1453;42.708;23.282;2022-11-14T11:55:49;79.43;;;55.20;;
2888;SDS011;1453;42.708;23.282;2022-11-14T11:58:24;88.37;;;61.00;;
2888;SDS011;1453;42.708;23.282;2022-11-14T12:00:55;87.70;;;59.00;;
2888;SDS011;1453;42.708;23.282;2022-11-14T12:03:24;84.60;;;58.63;;
2888;SDS011;1453;42.708;23.282;2022-11-14T12:11:21;91.90;;;60.43;;
2888;SDS011;1453;42.708;23.282;2022-11-14T12:20:23;83.00;;;59.93;;
2888;SDS011;1453;42.708;23.282;2022-11-14T12:29:10;82.40;;;59.00;;
2888;SDS011;1453;42.708;23.282;2022-11-14T12:32:06;77.37;;;56.20;;
2888;SDS011;1453;42.708;23.282;2022-11-14T12:34:41;80.87;;;55.27;;
2888;SDS011;1453;42.708;23.282;2022-11-14T12:37:53;78.00;;;52.07;;
2888;SDS011;1453;42.708;23.282;2022-11-14T12:40:04;72.33;;;53.10;;
2888;SDS011;1453;42.708;23.282;2022-11-14T12:42:32;70.27;;;53.50;;
2888;SDS011;1453;42.708;23.282;2022-11-14T12:44:59;77.43;;;57.03;;
2888;SDS011;1453;42.708;23.282;2022-11-14T12:47:25;77.53;;;54.67;;
2888;SDS011;1453;42.708;23.282;2022-11-14T12:55:52;81.67;;;59.83;;
2888;SDS011;1453;42.708;23.282;2022-11-14T12:58:12;87.80;;;59.00;;
2888;SDS011;1453;42.708;23.282;2022-11-14T13:09:09;89.47;;;59.03;;
2888;SDS011;1453;42.708;23.282;2022-11-14T13:11:51;78.67;;;56.80;;
2888;SDS011;1453;42.708;23.282;2022-11-14T13:14:55;86.73;;;61.10;;
2888;SDS011;1453;42.708;23.282;2022-11-14T13:18:25;82.87;;;56.90;;
2888;SDS011;1453;42.708;23.282;2022-11-14T13:22:15;83.00;;;59.80;;
2888;SDS011;1453;42.708;23.282;2022-11-14T13:24:15;89.67;;;60.53;;
2888;SDS011;1453;42.708;23.282;2022-11-14T13:26:50;82.47;;;57.40;;
2888;SDS011;1453;42.708;23.282;2022-11-14T13:32:09;73.37;;;58.27;;
2888;SDS011;1453;42.708;23.282;2022-11-14T13:34:48;88.00;;;62.10;;
2888;SDS011;1453;42.708;23.282;2022-11-14T13:52:16;84.93;;;59.17;;
2888;SDS011;1453;42.708;23.282;2022-11-14T13:54:47;83.47;;;58.97;;
2888;SDS011;1453;42.708;23.282;2022-11-14T13:57:17;90.80;;;59.13;;
2888;SDS011;1453;42.708;23.282;2022-11-14T14:00:16;86.53;;;58.27;;
2888;SDS011;1453;42.708;23.282;2022-11-14T14:05:56;87.73;;;58.47;;
2888;SDS011;1453;42.708;23.282;2022-11-14T14:15:19;92.17;;;61.30;;
2888;SDS011;1453;42.708;23.282;2022-11-14T14:17:57;92.57;;;59.30;;
2888;SDS011;1453;42.708;23.282;2022-11-14T14:29:32;102.13;;;62.87;;
2888;SDS011;1453;42.708;23.282;2022-11-14T14:32:15;102.87;;;67.67;;
2888;SDS011;1453;42.708;23.282;2022-11-14T14:34:42;92.43;;;63.03;;
2888;SDS011;1453;42.708;23.282;2022-11-14T14:37:16;101.30;;;67.73;;
2888;SDS011;1453;42.708;23.282;2022-11-14T14:39:58;104.73;;;67.33;;
2888;SDS011;1453;42.708;23.282;2022-11-14T14:42:33;111.53;;;69.33;;
2888;SDS011;1453;42.708;23.282;2022-11-14T14:45:03;107.47;;;66.30;;
2888;SDS011;1453;42.708;23.282;2022-11-14T14:47:39;109.10;;;63.17;;
2888;SDS011;1453;42.708;23.282;2022-11-14T14:50:32;111.40;;;62.47;;
2888;SDS011;1453;42.708;23.282;2022-11-14T14:53:04;101.50;;;58.67;;
2888;SDS011;1453;42.708;23.282;2022-11-14T14:55:32;108.03;;;61.10;;
2888;SDS011;1453;42.708;23.282;2022-11-14T15:00:51;104.30;;;59.37;;
2888;SDS011;1453;42.708;23.282;2022-11-14T15:03:43;103.03;;;58.33;;
2888;SDS011;1453;42.708;23.282;2022-11-14T15:09:18;107.00;;;57.10;;
2888;SDS011;1453;42.708;23.282;2022-11-14T15:11:57;111.97;;;58.10;;
2888;SDS011;1453;42.708;23.282;2022-11-14T15:14:29;108.10;;;56.63;;
2888;SDS011;1453;42.708;23.282;2022-11-14T15:16:59;109.00;;;60.40;;
2888;SDS011;1453;42.708;23.282;2022-11-14T15:19:28;116.30;;;58.03;;
2888;SDS011;1453;42.708;23.282;2022-11-14T15:24:41;101.10;;;53.13;;
2888;SDS011;1453;42.708;23.282;2022-11-14T15:29:47;120.53;;;56.37;;
2888;SDS011;1453;42.708;23.282;2022-11-14T15:32:17;106.30;;;56.53;;
2888;SDS011;1453;42.708;23.282;2022-11-14T15:40:36;117.72;;;61.70;;
2888;SDS011;1453;42.708;23.282;2022-11-14T15:46:23;110.60;;;56.45;;
2888;SDS011;1453;42.708;23.282;2022-11-14T15:54:32;119.63;;;59.30;;
2888;SDS011;1453;42.708;23.282;2022-11-14T15:57:00;111.33;;;57.50;;
2888;SDS011;1453;42.708;23.282;2022-11-14T15:59:37;111.53;;;58.37;;
2888;SDS011;1453;42.708;23.282;2022-11-14T16:02:09;128.63;;;60.28;;
2888;SDS011;1453;42.708;23.282;2022-11-14T16:04:42;118.10;;;58.50;;
2888;SDS011;1453;42.708;23.282;2022-11-14T16:07:10;112.68;;;57.88;;
2888;SDS011;1453;42.708;23.282;2022-11-14T16:09:37;117.80;;;59.90;;
2888;SDS011;1453;42.708;23.282;2022-11-14T16:12:03;136.30;;;65.72;;
2888;SDS011;1453;42.708;23.282;2022-11-14T16:14:30;122.68;;;63.58;;
2888;SDS011;1453;42.708;23.282;2022-11-14T16:16:56;151.40;;;77.07;;
2888;SDS011;1453;42.708;23.282;2022-11-14T16:19:22;169.93;;;77.57;;
2888;SDS011;1453;42.708;23.282;2022-11-14T16:21:47;159.03;;;85.40;;
2888;SDS011;1453;42.708;23.282;2022-11-14T16:24:15;209.97;;;118.90;;
2888;SDS011;1453;42.708;23.282;2022-11-14T16:26:44;360.65;;;217.95;;
2888;SDS011;1453;42.708;23.282;2022-11-14T16:29:11;353.58;;;212.65;;
2888;SDS011;1453;42.708;23.282;2022-11-14T16:31:37;343.77;;;211.13;;
2888;SDS011;1453;42.708;23.282;2022-11-14T16:34:03;278.37;;;157.33;;
2888;SDS011;1453;42.708;23.282;2022-11-14T16:36:30;293.52;;;165.52;;
2888;SDS011;1453;42.708;23.282;2022-11-14T16:38:59;303.80;;;184.88;;
2888;SDS011;1453;42.708;23.282;2022-11-14T16:41:27;345.38;;;194.02;;
2888;SDS011;1453;42.708;23.282;2022-11-14T16:43:53;279.37;;;159.47;;
2888;SDS011;1453;42.708;23.282;2022-11-14T16:46:21;227.95;;;132.35;;
2888;SDS011;1453;42.708;23.282;2022-11-14T16:48:48;241.07;;;134.07;;
2888;SDS011;1453;42.708;23.282;2022-11-14T16:51:15;270.67;;;151.20;;
2888;SDS011;1453;42.708;23.282;2022-11-14T16:53:40;214.80;;;117.57;;
2888;SDS011;1453;42.708;23.282;2022-11-14T16:56:09;202.43;;;110.87;;